Time;durP1;ratioP1;P1;durP2;ratioP2;P2;SDS_P1;SDS_P2;PMS_P1;PMS_P2;Temp;Humidity;BMP_temperature;BMP_pressure;BME280_temperature;BME280_humidity;BME280_pressure;Samples;Min_cycle;Max_cycle;Signal;HPM_P1;HPM_P2
2021/02/26 00:01:31;;;;;;;5.4;2.2;;;;;;;5.81;61.71582;949.7864;;;;
2021/02/26 00:03:59;;;;;;;12.5;2.5;;;;;;;5.78;61.41797;949.7989;;;;
2021/02/26 00:06:27;;;;;;;3.8;2;;;;;;;5.86;61.42871;949.7869;;;;
2021/02/26 00:08:52;;;;;;;3;1.7;;;;;;;5.77;61.5166;949.8601;;;;
2021/02/26 00:11:19;;;;;;;4.2;1.9;;;;;;;5.77;61.28027;949.9041;;;;
2021/02/26 00:13:50;;;;;;;3.3;1.7;;;;;;;5.8;60.92188;949.8597;;;;
2021/02/26 00:16:15;;;;;;;2.7;1.4;;;;;;;5.81;61.07129;949.855;;;;
2021/02/26 00:18:45;;;;;;;5.6;1.8;;;;;;;5.88;60.35742;949.7878;;;;
2021/02/26 00:21:12;;;;;;;4.8;1.5;;;;;;;5.95;60.25488;949.7629;;;;
2021/02/26 00:23:41;;;;;;;4.2;1.7;;;;;;;5.92;59.93457;949.6989;;;;
2021/02/26 00:26:08;;;;;;;1.7;1.6;;;;;;;5.83;59.77539;949.7753;;;;
2021/02/26 00:28:33;;;;;;;2.6;1.6;;;;;;;5.87;59.39746;949.7645;;;;
2021/02/26 00:31:02;;;;;;;3;1.5;;;;;;;5.96;58.75391;949.8146;;;;
2021/02/26 00:33:30;;;;;;;2.4;1.6;;;;;;;5.94;59.40625;949.8525;;;;
2021/02/26 00:35:55;;;;;;;4.8;1.5;;;;;;;5.84;59.70898;949.8309;;;;
2021/02/26 00:38:22;;;;;;;2.3;1.4;;;;;;;5.78;60.53711;949.9167;;;;
2021/02/26 00:40:48;;;;;;;3.1;1.5;;;;;;;5.82;60.42969;949.7473;;;;
2021/02/26 00:43:13;;;;;;;4;1.6;;;;;;;5.63;61.22656;949.7849;;;;
2021/02/26 00:45:44;;;;;;;7.7;1.7;;;;;;;5.38;62.28418;949.95;;;;
2021/02/26 00:48:06;;;;;;;5.5;1.7;;;;;;;5.36;62.58691;949.9129;;;;
2021/02/26 00:50:38;;;;;;;7.4;2.1;;;;;;;5.39;62.35352;949.9419;;;;
2021/02/26 00:53:06;;;;;;;3.6;1.9;;;;;;;5.37;61.85449;949.938;;;;
2021/02/26 00:55:31;;;;;;;9.4;1.6;;;;;;;5.23;62.45508;950.0173;;;;
2021/02/26 00:57:58;;;;;;;4.4;1.9;;;;;;;5.1;63.17969;950.024;;;;
2021/02/26 01:00:23;;;;;;;3.6;1.5;;;;;;;4.89;64.07324;949.9939;;;;
2021/02/26 01:02:53;;;;;;;9.6;1.7;;;;;;;5.09;63.5166;950.0109;;;;
2021/02/26 01:05:24;;;;;;;2.3;1.8;;;;;;;5.24;63.12109;950.0161;;;;
2021/02/26 01:07:49;;;;;;;1.8;1.3;;;;;;;5.27;62.92383;950.0588;;;;
2021/02/26 01:10:17;;;;;;;7.1;1.6;;;;;;;5.21;63.20703;949.9508;;;;
2021/02/26 01:12:42;;;;;;;7.9;1.9;;;;;;;5.08;63.61621;949.9772;;;;
2021/02/26 01:15:13;;;;;;;6.5;1.6;;;;;;;5.01;63.79785;949.9478;;;;
2021/02/26 01:17:43;;;;;;;3.7;1.8;;;;;;;4.89;64.36621;949.9543;;;;
2021/02/26 01:20:08;;;;;;;3.5;1.7;;;;;;;4.95;63.95801;949.9423;;;;
2021/02/26 01:22:35;;;;;;;3.3;1.6;;;;;;;4.97;63.89355;950.0655;;;;
2021/02/26 01:25:01;;;;;;;4.2;1.7;;;;;;;5.01;63.71875;950.053;;;;
2021/02/26 01:27:29;;;;;;;3.8;1.5;;;;;;;5.03;63.57617;950.0681;;;;
2021/02/26 01:29:54;;;;;;;3;1.6;;;;;;;4.98;64.89746;950.0959;;;;
2021/02/26 01:32:23;;;;;;;7.8;2.7;;;;;;;5;65.28418;950.0875;;;;
2021/02/26 01:34:48;;;;;;;5.8;1.5;;;;;;;4.87;64.18262;950.0889;;;;
2021/02/26 01:37:16;;;;;;;12.7;1.5;;;;;;;4.71;64.66699;950.0967;;;;
2021/02/26 01:39:41;;;;;;;8.2;1.4;;;;;;;4.67;64.87402;950.082;;;;
2021/02/26 01:42:08;;;;;;;9.1;2.1;;;;;;;4.62;65.06836;949.9799;;;;
2021/02/26 01:44:34;;;;;;;1.7;1.4;;;;;;;4.6;65.11035;950.1167;;;;
2021/02/26 01:47:01;;;;;;;7.8;2;;;;;;;4.67;64.8291;950.1594;;;;
2021/02/26 01:49:26;;;;;;;5.7;1.6;;;;;;;4.79;64.39453;950.1588;;;;
2021/02/26 01:51:53;;;;;;;4.5;2.1;;;;;;;4.7;64.59668;950.1727;;;;
2021/02/26 01:54:19;;;;;;;5.3;1.8;;;;;;;4.51;65.3125;950.1517;;;;
2021/02/26 01:56:44;;;;;;;3.4;1.8;;;;;;;4.45;65.44727;950.1931;;;;
2021/02/26 01:59:09;;;;;;;2.8;1.5;;;;;;;4.34;65.74609;950.2128;;;;
2021/02/26 02:01:36;;;;;;;2.8;1.7;;;;;;;4.37;65.68262;950.1769;;;;
2021/02/26 02:04:01;;;;;;;11.8;1.7;;;;;;;4.54;65.11328;950.2422;;;;
2021/02/26 02:06:28;;;;;;;4;1.8;;;;;;;4.61;65.20215;950.2043;;;;
2021/02/26 02:08:54;;;;;;;4.8;1.8;;;;;;;4.36;65.63574;950.279;;;;
2021/02/26 02:11:19;;;;;;;2;1.4;;;;;;;4.21;66.32227;950.2502;;;;
2021/02/26 02:13:49;;;;;;;4.8;1.6;;;;;;;4.12;67.11719;950.2725;;;;
2021/02/26 02:16:14;;;;;;;5;1.4;;;;;;;4.1;67.07031;950.3458;;;;
2021/02/26 02:18:43;;;;;;;4.3;1.6;;;;;;;4.17;67.0127;950.2903;;;;
2021/02/26 02:21:09;;;;;;;5.7;2.2;;;;;;;4.15;66.75;950.3063;;;;
2021/02/26 02:23:36;;;;;;;2.5;1.6;;;;;;;4.24;66.23633;950.3003;;;;
2021/02/26 02:26:01;;;;;;;2.9;1.4;;;;;;;4.26;66.35352;950.2615;;;;
2021/02/26 02:28:30;;;;;;;2.4;1.4;;;;;;;4.24;66.4502;950.3517;;;;
2021/02/26 02:30:56;;;;;;;2.5;1.5;;;;;;;4.33;65.96777;950.394;;;;
2021/02/26 02:33:24;;;;;;;4.8;1.5;;;;;;;4.41;65.72363;950.4105;;;;
2021/02/26 02:35:49;;;;;;;2.2;1.3;;;;;;;4.45;65.18848;950.3793;;;;
2021/02/26 02:38:16;;;;;;;5;1.7;;;;;;;4.21;65.77148;950.3621;;;;
2021/02/26 02:40:41;;;;;;;1.6;1.4;;;;;;;4.12;65.86816;950.323;;;;
2021/02/26 02:43:09;;;;;;;3;1.7;;;;;;;4.17;65.74219;950.3508;;;;
2021/02/26 02:45:35;;;;;;;5.1;1.2;;;;;;;4.17;65.68555;950.3628;;;;
2021/02/26 02:48:00;;;;;;;2.7;1.6;;;;;;;4.2;65.33105;950.3328;;;;
2021/02/26 02:50:30;;;;;;;4.4;1.7;;;;;;;4.26;65.1709;950.3338;;;;
2021/02/26 02:52:55;;;;;;;3.6;1.3;;;;;;;4.22;64.95117;950.2255;;;;
2021/02/26 02:55:22;;;;;;;1.8;1.1;;;;;;;4.19;64.80078;950.1905;;;;
2021/02/26 02:57:47;;;;;;;1.9;1.2;;;;;;;4.22;64.86133;950.2579;;;;
2021/02/26 03:00:15;;;;;;;2.8;1.6;;;;;;;4.24;65.04395;950.2715;;;;
2021/02/26 03:02:43;;;;;;;4.7;1.3;;;;;;;4.27;64.81152;950.3297;;;;
2021/02/26 03:05:08;;;;;;;4;1.7;;;;;;;3.95;65.6875;950.2541;;;;
2021/02/26 03:07:35;;;;;;;3.6;1.7;;;;;;;3.91;66.0625;950.2944;;;;
2021/02/26 03:10:00;;;;;;;4.9;1.5;;;;;;;3.77;66.66797;950.2751;;;;
2021/02/26 03:12:25;;;;;;;2.8;1.3;;;;;;;3.57;67.51465;950.3059;;;;
2021/02/26 03:14:53;;;;;;;2.2;1.5;;;;;;;3.68;67.20605;950.1501;;;;
2021/02/26 03:17:19;;;;;;;5.6;1.6;;;;;;;3.78;67.03027;950.2994;;;;
2021/02/26 03:19:49;;;;;;;2;1.4;;;;;;;3.91;66.57813;950.2775;;;;
2021/02/26 03:22:14;;;;;;;3.4;1.9;;;;;;;3.85;66.85059;950.2657;;;;
2021/02/26 03:24:43;;;;;;;5.5;1.7;;;;;;;3.72;67.875;950.3134;;;;
2021/02/26 03:27:14;;;;;;;3.4;1.7;;;;;;;3.84;67.39844;950.2626;;;;
2021/02/26 03:29:47;;;;;;;4.3;2;;;;;;;3.83;66.69043;950.3128;;;;
2021/02/26 03:32:13;;;;;;;3.6;1.6;;;;;;;3.76;66.88184;950.3694;;;;
2021/02/26 03:34:45;;;;;;;7;1.8;;;;;;;3.7;67.13184;950.3655;;;;
2021/02/26 03:37:15;;;;;;;2.3;1.5;;;;;;;3.75;67.12891;950.4266;;;;
2021/02/26 03:39:44;;;;;;;4.4;1.5;;;;;;;3.66;67.10059;950.353;;;;
2021/02/26 03:42:09;;;;;;;5;2.2;;;;;;;3.59;66.97852;950.4457;;;;
2021/02/26 03:44:37;;;;;;;1.9;1.3;;;;;;;3.61;66.46387;950.4689;;;;
2021/02/26 03:47:03;;;;;;;9.7;1.4;;;;;;;3.62;67.77051;950.4328;;;;
2021/02/26 03:49:33;;;;;;;2.5;1.3;;;;;;;3.52;67.34863;950.5206;;;;
2021/02/26 03:51:59;;;;;;;2.3;1.2;;;;;;;3.42;67.33301;950.5313;;;;
2021/02/26 03:54:28;;;;;;;5.3;2.2;;;;;;;3.45;67.05664;950.5676;;;;
2021/02/26 03:57:02;;;;;;;8.5;1.8;;;;;;;3.6;66.2041;950.509;;;;
2021/02/26 03:59:30;;;;;;;2.9;1.2;;;;;;;3.74;66.03613;950.645;;;;
2021/02/26 04:02:32;;;;;;;3.4;1.6;;;;;;;3.77;65.78027;950.5588;;;;
2021/02/26 04:05:01;;;;;;;3.1;1.3;;;;;;;3.8;65.44824;950.5872;;;;
2021/02/26 04:07:30;;;;;;;6.5;1.3;;;;;;;3.8;65.37012;950.4753;;;;
2021/02/26 04:09:55;;;;;;;8.2;1.2;;;;;;;3.84;65.14063;950.5528;;;;
2021/02/26 04:12:20;;;;;;;4.1;1.4;;;;;;;3.72;65.22363;950.551;;;;
2021/02/26 04:14:48;;;;;;;2;1.3;;;;;;;3.73;64.95605;950.5511;;;;
2021/02/26 04:17:16;;;;;;;1.3;1;;;;;;;3.75;65.08105;950.4522;;;;
2021/02/26 04:19:45;;;;;;;3.6;1.3;;;;;;;3.7;65.41211;950.5474;;;;
2021/02/26 04:22:10;;;;;;;2.6;1.3;;;;;;;3.74;65.39551;950.5204;;;;
2021/02/26 04:24:41;;;;;;;2.2;1.1;;;;;;;3.53;66.23828;950.4981;;;;
2021/02/26 04:27:06;;;;;;;7.4;1.1;;;;;;;3.55;66.41113;950.4882;;;;
2021/02/26 04:29:38;;;;;;;1.1;0.9;;;;;;;3.56;66.26465;950.4737;;;;
2021/02/26 04:32:03;;;;;;;2.6;1.3;;;;;;;3.51;66.55176;950.4305;;;;
2021/02/26 04:34:34;;;;;;;4.6;1.9;;;;;;;3.23;67.60645;950.4073;;;;
2021/02/26 04:36:59;;;;;;;4.6;1.3;;;;;;;3.19;67.63379;950.3982;;;;
2021/02/26 04:39:30;;;;;;;3.2;1.5;;;;;;;3.32;67.20508;950.3303;;;;
2021/02/26 04:41:55;;;;;;;8.2;1.5;;;;;;;3.45;66.82129;950.4055;;;;
2021/02/26 04:44:26;;;;;;;5.5;1.4;;;;;;;3.47;66.74609;950.3549;;;;
2021/02/26 04:46:57;;;;;;;2.6;1.4;;;;;;;3.48;66.56836;950.4436;;;;
2021/02/26 04:49:28;;;;;;;3.3;2.1;;;;;;;3.43;66.60645;950.4622;;;;
2021/02/26 04:51:57;;;;;;;5.7;1.7;;;;;;;3.41;66.92773;950.4475;;;;
2021/02/26 04:54:22;;;;;;;2.7;1.9;;;;;;;3.29;66.8418;950.4672;;;;
2021/02/26 04:56:52;;;;;;;5.9;1.9;;;;;;;3.19;67.39844;950.4409;;;;
2021/02/26 04:59:21;;;;;;;6.1;1.1;;;;;;;3.24;67.25;950.3819;;;;
2021/02/26 05:01:46;;;;;;;2.4;1.3;;;;;;;3.27;67.2207;950.4308;;;;
2021/02/26 05:04:16;;;;;;;1.7;1.1;;;;;;;3.23;67.19043;950.4496;;;;
2021/02/26 05:06:46;;;;;;;5.2;2;;;;;;;3.29;66.96484;950.3878;;;;
2021/02/26 05:09:11;;;;;;;15;3.6;;;;;;;3.36;66.68457;950.4132;;;;
2021/02/26 05:11:36;;;;;;;2;1.2;;;;;;;3.56;65.9502;950.4305;;;;
2021/02/26 05:14:08;;;;;;;2.9;1.5;;;;;;;3.6;65.92383;950.4586;;;;
2021/02/26 05:16:40;;;;;;;6.4;2.3;;;;;;;3.52;66.18066;950.3867;;;;
2021/02/26 05:19:11;;;;;;;8.3;2.7;;;;;;;3.34;66.80566;950.3655;;;;
2021/02/26 05:21:42;;;;;;;11.5;2.3;;;;;;;3.45;66.54102;950.435;;;;
2021/02/26 05:24:13;;;;;;;3.9;2.1;;;;;;;3.55;65.90527;950.4208;;;;
2021/02/26 05:26:43;;;;;;;8.6;2;;;;;;;3.49;66.09961;950.4372;;;;
2021/02/26 05:29:13;;;;;;;9.7;3.5;;;;;;;3.43;66.41504;950.4622;;;;
2021/02/26 05:31:41;;;;;;;12.4;4.7;;;;;;;3.35;66.73828;950.4612;;;;
2021/02/26 05:34:11;;;;;;;5.2;2.7;;;;;;;3.3;66.64063;950.4183;;;;
2021/02/26 05:36:42;;;;;;;11;3.6;;;;;;;3.27;66.92871;950.4286;;;;
2021/02/26 05:39:14;;;;;;;9;3.9;;;;;;;3.16;67.4043;950.4462;;;;
2021/02/26 05:41:40;;;;;;;11.6;3.6;;;;;;;3.12;67.64551;950.454;;;;
2021/02/26 05:44:10;;;;;;;12.6;3.1;;;;;;;3.13;67.68945;950.5065;;;;
2021/02/26 05:46:41;;;;;;;6.4;3.4;;;;;;;3.09;68.01074;950.4172;;;;
2021/02/26 05:49:11;;;;;;;8.4;2.8;;;;;;;3.02;68.08887;950.4564;;;;
2021/02/26 05:51:42;;;;;;;14.5;3.2;;;;;;;3.06;67.97168;950.3689;;;;
2021/02/26 05:54:13;;;;;;;6.6;3.1;;;;;;;3.03;68.25879;950.4088;;;;
2021/02/26 05:56:42;;;;;;;7;3.2;;;;;;;2.84;68.96875;950.4324;;;;
2021/02/26 05:59:07;;;;;;;8.1;2.7;;;;;;;2.97;68.55176;950.3439;;;;
2021/02/26 06:01:38;;;;;;;5.7;2.3;;;;;;;3.2;67.77051;950.3267;;;;
2021/02/26 06:04:05;;;;;;;12.9;3;;;;;;;3.31;67.42676;950.4155;;;;
2021/02/26 06:06:30;;;;;;;8.6;3.4;;;;;;;3.36;67.32422;950.4289;;;;
2021/02/26 06:08:55;;;;;;;9.6;3;;;;;;;3.41;66.1748;950.4705;;;;
2021/02/26 06:11:23;;;;;;;7.8;2.6;;;;;;;3.41;65.91699;950.4403;;;;
2021/02/26 06:13:48;;;;;;;4.3;2.3;;;;;;;3.53;65.31738;950.4149;;;;
2021/02/26 06:16:13;;;;;;;5.3;2.2;;;;;;;3.64;66.94043;950.4579;;;;
2021/02/26 06:18:38;;;;;;;4.8;2.3;;;;;;;3.66;66.28027;950.4568;;;;
2021/02/26 06:21:06;;;;;;;8.5;3.1;;;;;;;3.66;67.03418;950.4515;;;;
2021/02/26 06:23:31;;;;;;;8;2.8;;;;;;;3.72;66.05469;950.4285;;;;
2021/02/26 06:25:59;;;;;;;7.9;2;;;;;;;3.74;65.31641;950.3929;;;;
2021/02/26 06:28:23;;;;;;;12;2.9;;;;;;;3.72;67.31445;950.3656;;;;
2021/02/26 06:30:48;;;;;;;7.3;1.9;;;;;;;3.75;66.16113;950.4099;;;;
2021/02/26 06:33:14;;;;;;;4.6;2.5;;;;;;;3.8;65.56152;950.3997;;;;
2021/02/26 06:35:39;;;;;;;2.6;1.5;;;;;;;3.88;65.08984;950.3777;;;;
2021/02/26 06:38:04;;;;;;;11;3.1;;;;;;;4.12;64.63086;950.3049;;;;
2021/02/26 06:40:33;;;;;;;15;2.2;;;;;;;4.32;63.71777;950.3409;;;;
2021/02/26 06:42:58;;;;;;;9.6;2.1;;;;;;;4.82;61.52832;950.3921;;;;
2021/02/26 06:45:28;;;;;;;4.1;2;;;;;;;5.07;60.33496;950.4102;;;;
2021/02/26 06:47:53;;;;;;;17.1;3;;;;;;;5.28;59.51953;950.3364;;;;
2021/02/26 06:50:18;;;;;;;18.7;2.8;;;;;;;5.15;59.5459;950.366;;;;
2021/02/26 06:52:46;;;;;;;9.4;2.9;;;;;;;5.39;59.44336;950.2695;;;;
2021/02/26 06:55:12;;;;;;;12.8;2.8;;;;;;;5.55;58.23535;950.3361;;;;
2021/02/26 06:57:40;;;;;;;3.9;1.4;;;;;;;5.68;58.45703;950.2029;;;;
2021/02/26 07:00:05;;;;;;;6.6;2;;;;;;;5.9;57.49316;950.3306;;;;
2021/02/26 07:02:30;;;;;;;3.7;2.1;;;;;;;6.08;57.12012;950.3423;;;;
2021/02/26 07:04:59;;;;;;;4.4;2.6;;;;;;;6.22;56.47266;950.3165;;;;
2021/02/26 07:07:25;;;;;;;9.5;2.8;;;;;;;6.37;56.33594;950.2957;;;;
2021/02/26 07:09:49;;;;;;;8.9;2.7;;;;;;;6.62;55.77832;950.3212;;;;
2021/02/26 07:12:20;;;;;;;13.9;3.3;;;;;;;7;55.00098;950.246;;;;
2021/02/26 07:14:49;;;;;;;10.4;2.6;;;;;;;7.57;52.81738;950.1489;;;;
2021/02/26 07:17:14;;;;;;;7.8;2;;;;;;;7.97;51.32324;950.2134;;;;
2021/02/26 07:19:39;;;;;;;2.6;1.4;;;;;;;8.04;50.37891;950.1652;;;;
2021/02/26 07:22:04;;;;;;;3.3;1.4;;;;;;;8.21;50.05859;950.2209;;;;
2021/02/26 07:24:29;;;;;;;11.5;2.3;;;;;;;8.54;48.6875;950.1559;;;;
2021/02/26 07:26:55;;;;;;;8.7;1.8;;;;;;;8.32;48.98047;950.1655;;;;
2021/02/26 07:29:20;;;;;;;2.8;1.4;;;;;;;8.55;47.87012;950.1364;;;;
2021/02/26 07:31:50;;;;;;;4.2;1.7;;;;;;;8.8;47.66992;950.152;;;;
2021/02/26 07:34:17;;;;;;;9.9;1.3;;;;;;;9.01;47.23828;950.1685;;;;
2021/02/26 07:36:43;;;;;;;4.9;1.8;;;;;;;9.2;46.83887;950.1454;;;;
2021/02/26 07:39:08;;;;;;;2.8;1.9;;;;;;;9.2;47.10059;950.1964;;;;
2021/02/26 07:41:35;;;;;;;6.2;2.7;;;;;;;9.75;46.21387;950.1484;;;;
2021/02/26 07:44:04;;;;;;;3.8;1.7;;;;;;;10.22;44.70117;950.0652;;;;
2021/02/26 07:46:29;;;;;;;4.1;1.6;;;;;;;11.02;42.22363;950.0714;;;;
2021/02/26 07:48:55;;;;;;;2.4;1.5;;;;;;;11.46;41.20313;950.0275;;;;
2021/02/26 07:51:20;;;;;;;1.2;0.8;;;;;;;11.46;40.57227;950.0753;;;;
2021/02/26 07:53:45;;;;;;;3.5;1.7;;;;;;;11.7;40.41309;950.052;;;;
2021/02/26 07:56:15;;;;;;;4.8;1.9;;;;;;;12.53;37.85156;949.9841;;;;
2021/02/26 07:58:42;;;;;;;3.6;1.6;;;;;;;12.51;37.18359;950.01;;;;
2021/02/26 08:01:12;;;;;;;6;1.4;;;;;;;12.22;36.4834;949.9789;;;;
2021/02/26 08:03:43;;;;;;;3.2;1.1;;;;;;;12.41;36.25977;950.0161;;;;
2021/02/26 08:06:10;;;;;;;1.1;0.6;;;;;;;12.64;35.41797;949.9228;;;;
2021/02/26 08:08:40;;;;;;;1.4;0.9;;;;;;;13.14;34.97559;949.9202;;;;
2021/02/26 08:11:11;;;;;;;3.1;1.4;;;;;;;13.25;34.42188;949.8979;;;;
2021/02/26 08:13:36;;;;;;;4.8;0.9;;;;;;;13.28;33.68945;949.9137;;;;
2021/02/26 08:16:01;;;;;;;0.9;0.7;;;;;;;12.38;35.51172;949.8489;;;;
2021/02/26 08:18:27;;;;;;;3.7;1.3;;;;;;;13.7;34.1582;949.7853;;;;
2021/02/26 08:20:52;;;;;;;6;1.4;;;;;;;14.86;31.87305;949.7302;;;;
2021/02/26 08:23:24;;;;;;;10.6;1.4;;;;;;;15.39;30.74609;949.7772;;;;
2021/02/26 08:25:49;;;;;;;4.4;1.4;;;;;;;15.6;30.71484;949.6512;;;;
2021/02/26 08:28:18;;;;;;;1.5;0.8;;;;;;;15.83;29.79395;949.717;;;;
2021/02/26 08:30:45;;;;;;;3.4;1.6;;;;;;;16.6;29.0127;949.7147;;;;
2021/02/26 08:33:14;;;;;;;4;1.4;;;;;;;16.46;28.91113;949.7196;;;;
2021/02/26 08:35:46;;;;;;;3.5;1.2;;;;;;;15.7;29.87793;949.7174;;;;
2021/02/26 08:38:13;;;;;;;2.4;1;;;;;;;16.15;29.13379;949.5773;;;;
2021/02/26 08:40:39;;;;;;;3.5;1.4;;;;;;;17.37;27.92773;949.6284;;;;
2021/02/26 08:43:08;;;;;;;4.8;1;;;;;;;17.98;26.91016;949.6426;;;;
2021/02/26 08:45:33;;;;;;;2.1;0.9;;;;;;;18.29;25.91797;949.6767;;;;
2021/02/26 08:48:05;;;;;;;1.4;0.6;;;;;;;19.42;25.36621;949.622;;;;
2021/02/26 08:50:36;;;;;;;6.6;1.1;;;;;;;20.29;23.57227;949.5714;;;;
2021/02/26 08:53:04;;;;;;;3.8;0.7;;;;;;;21.27;23.43652;949.5604;;;;
2021/02/26 08:55:29;;;;;;;1.3;0.6;;;;;;;21.4;22.41406;949.53;;;;
2021/02/26 08:57:57;;;;;;;3.8;0.8;;;;;;;20.71;22.83398;949.5064;;;;
2021/02/26 09:00:22;;;;;;;2.3;1;;;;;;;20.27;23.39551;949.4325;;;;
2021/02/26 09:02:47;;;;;;;3;1.1;;;;;;;19.43;24.5166;949.4131;;;;
2021/02/26 09:05:12;;;;;;;4.5;1.6;;;;;;;19.69;23.76074;949.3989;;;;
2021/02/26 09:07:42;;;;;;;1.4;0.8;;;;;;;20.19;24.0918;949.3326;;;;
2021/02/26 09:10:07;;;;;;;2.5;1.2;;;;;;;21;22.82617;949.3491;;;;
2021/02/26 09:12:38;;;;;;;1.8;0.9;;;;;;;19.96;22.87793;949.3152;;;;
2021/02/26 09:15:03;;;;;;;0.7;0.5;;;;;;;19.3;23.75195;949.2972;;;;
2021/02/26 09:17:33;;;;;;;1.6;0.8;;;;;;;20.29;23.55957;949.2665;;;;
2021/02/26 09:20:06;;;;;;;8.4;1.2;;;;;;;20.56;24.87109;949.2722;;;;
2021/02/26 09:22:36;;;;;;;7.3;1.2;;;;;;;20.51;23.09277;949.2598;;;;
2021/02/26 09:25:02;;;;;;;4.8;1.2;;;;;;;19.03;24.49414;949.2073;;;;
2021/02/26 09:27:28;;;;;;;13.6;1.3;;;;;;;19.23;24.0625;949.2509;;;;
2021/02/26 09:29:53;;;;;;;2.2;1.4;;;;;;;18.94;24.89648;949.2036;;;;
2021/02/26 09:32:19;;;;;;;1.1;0.4;;;;;;;19.29;23.78613;949.2214;;;;
2021/02/26 09:34:44;;;;;;;2.6;1.1;;;;;;;18.81;24.91309;949.1772;;;;
2021/02/26 09:37:10;;;;;;;1.2;0.8;;;;;;;18.6;24.83105;949.1324;;;;
2021/02/26 09:39:35;;;;;;;1;0.6;;;;;;;17.7;26.03418;949.1437;;;;
2021/02/26 09:42:03;;;;;;;1.6;1.2;;;;;;;17.53;26.05859;949.1135;;;;
2021/02/26 09:44:28;;;;;;;1.3;0.7;;;;;;;18.33;25.65234;949.0597;;;;
2021/02/26 09:46:54;;;;;;;5.6;0.9;;;;;;;18.54;24.82813;948.985;;;;
2021/02/26 09:49:18;;;;;;;2.4;1.2;;;;;;;19.07;23.90234;948.9835;;;;
2021/02/26 09:51:45;;;;;;;1.2;1;;;;;;;18.64;24.56543;948.9642;;;;
2021/02/26 09:54:10;;;;;;;2.9;0.9;;;;;;;18.47;24.67285;948.9877;;;;
2021/02/26 09:56:39;;;;;;;0.8;0.5;;;;;;;18.52;24.7334;948.9084;;;;
2021/02/26 09:59:04;;;;;;;2.5;0.5;;;;;;;19.38;23.06934;948.9268;;;;
2021/02/26 10:01:29;;;;;;;3.8;1;;;;;;;19.14;23.49902;948.845;;;;
2021/02/26 10:03:56;;;;;;;3.3;1.5;;;;;;;19.3;22.26074;948.8103;;;;
2021/02/26 10:06:21;;;;;;;1.1;0.6;;;;;;;19.21;22.80371;948.7678;;;;
2021/02/26 10:08:47;;;;;;;0.9;0.6;;;;;;;19.23;22.53613;948.7445;;;;
2021/02/26 10:11:13;;;;;;;2.3;1.2;;;;;;;19.88;21.49707;948.7258;;;;
2021/02/26 10:13:39;;;;;;;4.6;1.4;;;;;;;20.62;21.08887;948.7244;;;;
2021/02/26 10:16:05;;;;;;;1.7;0.4;;;;;;;20.9;21.64063;948.7204;;;;
2021/02/26 10:18:36;;;;;;;0.7;0.6;;;;;;;20.74;20.34668;948.7336;;;;
2021/02/26 10:21:02;;;;;;;0.6;0.5;;;;;;;20.37;21.06543;948.654;;;;
2021/02/26 10:23:33;;;;;;;3.3;1.2;;;;;;;20.87;22.88965;948.6602;;;;
2021/02/26 10:26:04;;;;;;;10;1.1;;;;;;;21.02;21.43555;948.6631;;;;
2021/02/26 10:28:36;;;;;;;1.3;0.8;;;;;;;20.7;22.10938;948.6516;;;;
2021/02/26 10:31:03;;;;;;;1.9;0.8;;;;;;;20.84;21.97656;948.6128;;;;
2021/02/26 10:33:28;;;;;;;1.5;0.9;;;;;;;20.86;21.46289;948.6588;;;;
2021/02/26 10:35:53;;;;;;;1.9;0.7;;;;;;;21.42;20.2373;948.6042;;;;
2021/02/26 10:38:20;;;;;;;2.6;1;;;;;;;20.93;24.2959;948.605;;;;
2021/02/26 10:40:45;;;;;;;2.3;1.5;;;;;;;21.03;21.83301;948.5715;;;;
2021/02/26 10:43:14;;;;;;;4.6;1.1;;;;;;;21.13;21.24219;948.5061;;;;
2021/02/26 10:45:43;;;;;;;4.3;1;;;;;;;21.31;20.75879;948.4286;;;;
2021/02/26 10:48:08;;;;;;;3.5;1.1;;;;;;;21.81;22.30566;948.4086;;;;
2021/02/26 10:50:36;;;;;;;7;1.1;;;;;;;22;19.94727;948.4785;;;;
2021/02/26 10:53:01;;;;;;;1.1;0.5;;;;;;;22.22;19.52344;948.475;;;;
2021/02/26 10:55:27;;;;;;;7.1;0.8;;;;;;;22.68;20.29492;948.4268;;;;
2021/02/26 10:57:52;;;;;;;4.6;1.1;;;;;;;23.46;19.625;948.3884;;;;
2021/02/26 11:00:18;;;;;;;4.3;1.2;;;;;;;23.9;19.69238;948.3508;;;;
2021/02/26 11:02:43;;;;;;;0.9;0.8;;;;;;;24.02;20.07324;948.3412;;;;
2021/02/26 11:05:12;;;;;;;1.4;1;;;;;;;24.09;19.27637;948.2769;;;;
2021/02/26 11:07:40;;;;;;;2.3;1.3;;;;;;;23.96;19.37695;948.2726;;;;
2021/02/26 11:10:05;;;;;;;0.9;0.6;;;;;;;23.66;19.26855;948.2501;;;;
2021/02/26 11:12:32;;;;;;;1.5;0.8;;;;;;;24.39;19.07715;948.209;;;;
2021/02/26 11:14:57;;;;;;;0.1;0.1;;;;;;;25.18;18.35547;948.2253;;;;
2021/02/26 11:17:25;;;;;;;6.3;1.1;;;;;;;25.8;17.93164;948.1343;;;;
2021/02/26 11:19:50;;;;;;;3.2;0.8;;;;;;;25.96;17.9375;948.1097;;;;
2021/02/26 11:22:17;;;;;;;1.8;0.6;;;;;;;26.7;16.74805;948.0875;;;;
2021/02/26 11:24:42;;;;;;;2.9;0.8;;;;;;;25.88;17.82813;948.0633;;;;
2021/02/26 11:27:08;;;;;;;12.9;1.4;;;;;;;25.55;18.2168;948.0084;;;;
2021/02/26 11:29:33;;;;;;;1.2;0.9;;;;;;;25.39;18.26953;948.0109;;;;
2021/02/26 11:32:00;;;;;;;4.1;1.4;;;;;;;25.27;17.80469;947.9714;;;;
2021/02/26 11:34:25;;;;;;;7.4;2;;;;;;;26.12;17.4707;947.9231;;;;
2021/02/26 11:36:52;;;;;;;6.7;1.2;;;;;;;26.82;17.49902;947.8795;;;;
2021/02/26 11:39:17;;;;;;;5.3;1.7;;;;;;;26.82;17.36816;947.8312;;;;
2021/02/26 11:41:43;;;;;;;2.6;1.4;;;;;;;26.26;18.60059;947.8254;;;;
2021/02/26 11:44:09;;;;;;;3.3;1.7;;;;;;;27.15;17.20313;947.7672;;;;
2021/02/26 11:46:38;;;;;;;8.8;2.3;;;;;;;27.01;16.56934;947.7275;;;;
2021/02/26 11:49:03;;;;;;;1.2;0.9;;;;;;;27.76;16.28906;947.6301;;;;
2021/02/26 11:51:33;;;;;;;4.1;1.9;;;;;;;27.53;16.44629;947.5923;;;;
2021/02/26 11:53:58;;;;;;;3.1;1.2;;;;;;;27.65;17.21094;947.579;;;;
2021/02/26 11:56:23;;;;;;;3;1.2;;;;;;;28.77;15.96875;947.5795;;;;
2021/02/26 11:58:48;;;;;;;2.1;1.3;;;;;;;29.57;15.45996;947.4679;;;;
2021/02/26 12:01:15;;;;;;;3.5;1.2;;;;;;;29.55;14.89844;947.5101;;;;
2021/02/26 12:03:40;;;;;;;3.8;1.9;;;;;;;29.32;14.95117;947.4634;;;;
2021/02/26 12:06:06;;;;;;;3.1;1.9;;;;;;;29.4;16.34863;947.3837;;;;
2021/02/26 12:08:31;;;;;;;3.1;1.1;;;;;;;28.92;15.96191;947.3918;;;;
2021/02/26 12:10:59;;;;;;;1.3;1;;;;;;;28.64;16.3916;947.3247;;;;
2021/02/26 12:13:24;;;;;;;4.4;1.3;;;;;;;28.38;16.58398;947.3323;;;;
2021/02/26 12:15:53;;;;;;;8.1;2.1;;;;;;;28.81;16.38574;947.2744;;;;
2021/02/26 12:18:22;;;;;;;6.3;2.3;;;;;;;28.82;16.07715;947.1941;;;;
2021/02/26 12:20:54;;;;;;;5;1.7;;;;;;;28.53;17.01758;947.2151;;;;
2021/02/26 12:23:21;;;;;;;5.9;1.8;;;;;;;27.68;17.16406;947.1808;;;;
2021/02/26 12:25:46;;;;;;;4.6;2.3;;;;;;;26.72;18.53711;947.0712;;;;
2021/02/26 12:28:12;;;;;;;6;1.2;;;;;;;26.63;18.63965;947.0678;;;;
2021/02/26 12:30:37;;;;;;;5.8;1.4;;;;;;;28.01;16.7959;947.0668;;;;
2021/02/26 12:33:03;;;;;;;2.1;1.2;;;;;;;29.36;15.66699;947.019;;;;
2021/02/26 12:35:28;;;;;;;3.2;1.3;;;;;;;29.83;15.6123;947.0083;;;;
2021/02/26 12:37:57;;;;;;;4;1.6;;;;;;;29.91;16.02051;947.0356;;;;
2021/02/26 12:40:22;;;;;;;5;1.5;;;;;;;29.71;15.71484;946.9515;;;;
2021/02/26 12:42:50;;;;;;;2.9;1.3;;;;;;;30.09;15.99121;946.9194;;;;
2021/02/26 12:45:15;;;;;;;13.1;2.4;;;;;;;29.89;15.66211;946.8583;;;;
2021/02/26 12:47:40;;;;;;;4.6;1.7;;;;;;;28.95;16.55762;946.8615;;;;
2021/02/26 12:50:06;;;;;;;8.7;1.9;;;;;;;28.94;16.08105;946.8167;;;;
2021/02/26 12:52:32;;;;;;;4.6;1.8;;;;;;;28.33;17.49805;946.8116;;;;
2021/02/26 12:54:57;;;;;;;10.9;2.2;;;;;;;28.73;17.24023;946.7794;;;;
2021/02/26 12:57:24;;;;;;;4.9;1.4;;;;;;;27.05;18.18262;946.6376;;;;
2021/02/26 12:59:49;;;;;;;6.8;1.9;;;;;;;26.71;18.7373;946.6831;;;;
2021/02/26 13:02:18;;;;;;;11.2;1.4;;;;;;;27.45;18.75684;946.7084;;;;
2021/02/26 13:04:43;;;;;;;6;1.8;;;;;;;27.41;18.24512;946.6783;;;;
2021/02/26 13:07:09;;;;;;;8.7;2.5;;;;;;;27.59;18.0625;946.6678;;;;
2021/02/26 13:09:36;;;;;;;5.3;1.7;;;;;;;27.9;17.45801;946.6263;;;;
2021/02/26 13:12:03;;;;;;;9.5;1.6;;;;;;;28.49;17.30176;946.6437;;;;
2021/02/26 13:14:28;;;;;;;4.8;1.3;;;;;;;29.48;16.625;946.5801;;;;
2021/02/26 13:16:55;;;;;;;12;1.5;;;;;;;28.71;17.8457;946.5149;;;;
2021/02/26 13:19:20;;;;;;;2.3;1.7;;;;;;;27.51;18.47461;946.5229;;;;
2021/02/26 13:21:48;;;;;;;3.9;2.1;;;;;;;26.88;18.92285;946.4632;;;;
2021/02/26 13:24:13;;;;;;;8.8;2.5;;;;;;;27.77;18.2832;946.4352;;;;
2021/02/26 13:26:38;;;;;;;3;1.1;;;;;;;28.61;17.47363;946.5036;;;;
2021/02/26 13:29:04;;;;;;;3.5;1.4;;;;;;;28.35;17.71289;946.4567;;;;
2021/02/26 13:31:31;;;;;;;5.2;1.9;;;;;;;28.23;17.375;946.457;;;;
2021/02/26 13:33:56;;;;;;;5.5;1.8;;;;;;;27.87;18.26465;946.4539;;;;
2021/02/26 13:36:22;;;;;;;7.1;2.3;;;;;;;27.87;18.15723;946.4211;;;;
2021/02/26 13:38:47;;;;;;;2.3;1.5;;;;;;;26.65;19.18555;946.3491;;;;
2021/02/26 13:41:12;;;;;;;12;1.5;;;;;;;26.86;20.4502;946.3433;;;;
2021/02/26 13:43:40;;;;;;;5.5;2.1;;;;;;;26.1;20.32129;946.277;;;;
2021/02/26 13:46:05;;;;;;;3;2;;;;;;;25.29;20.91016;946.3173;;;;
2021/02/26 13:48:31;;;;;;;7.2;1.1;;;;;;;24.74;21.81641;946.3158;;;;
2021/02/26 13:50:56;;;;;;;4.2;1.9;;;;;;;23.8;23.1582;946.265;;;;
2021/02/26 13:53:23;;;;;;;4;1.8;;;;;;;22.84;24.40039;946.2958;;;;
2021/02/26 13:55:48;;;;;;;3.3;1.9;;;;;;;21.86;25.13184;946.2369;;;;
2021/02/26 13:58:16;;;;;;;4.6;1.4;;;;;;;21.18;26.18164;946.2597;;;;
2021/02/26 14:00:41;;;;;;;4.5;2.1;;;;;;;21.09;26.59766;946.2531;;;;
2021/02/26 14:03:07;;;;;;;4.9;1.5;;;;;;;20.96;26.58984;946.2813;;;;
2021/02/26 14:05:33;;;;;;;8.9;2.7;;;;;;;20.76;27.09082;946.2886;;;;
2021/02/26 14:08:04;;;;;;;9.3;1.4;;;;;;;20.95;26.71777;946.2344;;;;
2021/02/26 14:10:29;;;;;;;14.5;1.8;;;;;;;21.06;26.77051;946.1947;;;;
2021/02/26 14:12:59;;;;;;;15.2;2.7;;;;;;;20.95;26.8457;946.2076;;;;
2021/02/26 14:15:24;;;;;;;13.2;2.1;;;;;;;21.08;26.8418;946.2145;;;;
2021/02/26 14:17:50;;;;;;;3.9;2;;;;;;;20.9;26.42188;946.2004;;;;
2021/02/26 14:20:21;;;;;;;5.2;2.1;;;;;;;20.84;26.59375;946.2162;;;;
2021/02/26 14:22:46;;;;;;;6.4;2.3;;;;;;;20.68;27.21484;946.1799;;;;
2021/02/26 14:25:15;;;;;;;3.4;1.8;;;;;;;21.32;26.38867;946.1451;;;;
2021/02/26 14:27:40;;;;;;;10.7;3.3;;;;;;;21.91;26.4707;946.0527;;;;
2021/02/26 14:30:09;;;;;;;12.6;2.2;;;;;;;21.52;26.5752;946.1083;;;;
2021/02/26 14:32:38;;;;;;;2.1;1.6;;;;;;;21.23;27.31934;946.0947;;;;